sensor_id;sensor_type;location;lat;lon;timestamp;temperature;humidity
71206;SHT31;58935;54.498;18.544;2023-02-25T00:00:15;4.48;77.47
71206;SHT31;58935;54.498;18.544;2023-02-25T00:05:39;4.44;77.68
71206;SHT31;58935;54.498;18.544;2023-02-25T00:08:23;4.41;77.88
71206;SHT31;58935;54.498;18.544;2023-02-25T00:19:34;4.20;78.45
71206;SHT31;58935;54.498;18.544;2023-02-25T00:22:17;4.16;78.69
71206;SHT31;58935;54.498;18.544;2023-02-25T00:36:14;3.95;79.93
71206;SHT31;58935;54.498;18.544;2023-02-25T00:53:00;3.86;80.10
71206;SHT31;58935;54.498;18.544;2023-02-25T01:04:09;3.86;80.00
71206;SHT31;58935;54.498;18.544;2023-02-25T01:09:32;3.82;80.02
71206;SHT31;58935;54.498;18.544;2023-02-25T01:20:45;3.70;80.40
71206;SHT31;58935;54.498;18.544;2023-02-25T01:26:20;3.71;80.41
71206;SHT31;58935;54.498;18.544;2023-02-25T01:31:53;3.76;80.29
71206;SHT31;58935;54.498;18.544;2023-02-25T01:34:42;3.78;80.27
71206;SHT31;58935;54.498;18.544;2023-02-25T01:45:52;3.79;80.18
71206;SHT31;58935;54.498;18.544;2023-02-25T01:53:57;3.85;80.24
71206;SHT31;58935;54.498;18.544;2023-02-25T01:56:26;3.86;80.18
71206;SHT31;58935;54.498;18.544;2023-02-25T01:59:25;3.88;80.09
71206;SHT31;58935;54.498;18.544;2023-02-25T02:02:46;3.88;80.01
71206;SHT31;58935;54.498;18.544;2023-02-25T02:05:47;3.88;79.96
71206;SHT31;58935;54.498;18.544;2023-02-25T02:08:37;3.88;79.91
71206;SHT31;58935;54.498;18.544;2023-02-25T02:11:55;3.87;79.92
71206;SHT31;58935;54.498;18.544;2023-02-25T02:14:35;3.86;79.90
71206;SHT31;58935;54.498;18.544;2023-02-25T02:17:12;3.85;79.92
71206;SHT31;58935;54.498;18.544;2023-02-25T02:26:11;3.82;80.00
71206;SHT31;58935;54.498;18.544;2023-02-25T02:34:15;3.81;80.00
71206;SHT31;58935;54.498;18.544;2023-02-25T03:33:29;3.99;79.48
71206;SHT31;58935;54.498;18.544;2023-02-25T03:35:50;3.97;79.49
71206;SHT31;58935;54.498;18.544;2023-02-25T04:14:43;3.71;80.20
71206;SHT31;58935;54.498;18.544;2023-02-25T04:17:08;3.71;80.24
71206;SHT31;58935;54.498;18.544;2023-02-25T04:19:39;3.72;80.28
71206;SHT31;58935;54.498;18.544;2023-02-25T04:22:04;3.72;80.32
71206;SHT31;58935;54.498;18.544;2023-02-25T04:24:32;3.71;80.28
71206;SHT31;58935;54.498;18.544;2023-02-25T04:26:57;3.71;80.20
71206;SHT31;58935;54.498;18.544;2023-02-25T04:29:25;3.71;80.29
71206;SHT31;58935;54.498;18.544;2023-02-25T04:31:51;3.72;80.30
71206;SHT31;58935;54.498;18.544;2023-02-25T04:34:17;3.72;80.30
71206;SHT31;58935;54.498;18.544;2023-02-25T04:36:43;3.73;80.30
71206;SHT31;58935;54.498;18.544;2023-02-25T04:39:13;3.73;80.30
71206;SHT31;58935;54.498;18.544;2023-02-25T04:41:42;3.74;80.24
71206;SHT31;58935;54.498;18.544;2023-02-25T04:44:08;3.74;80.22
71206;SHT31;58935;54.498;18.544;2023-02-25T04:46:35;3.72;80.13
71206;SHT31;58935;54.498;18.544;2023-02-25T04:49:05;3.69;80.13
71206;SHT31;58935;54.498;18.544;2023-02-25T04:57:43;3.57;80.39
71206;SHT31;58935;54.498;18.544;2023-02-25T05:00:10;3.55;80.53
71206;SHT31;58935;54.498;18.544;2023-02-25T05:05:14;3.55;80.59
71206;SHT31;58935;54.498;18.544;2023-02-25T05:07:42;3.54;80.56
71206;SHT31;58935;54.498;18.544;2023-02-25T05:10:09;3.55;80.66
71206;SHT31;58935;54.498;18.544;2023-02-25T05:12:39;3.54;80.60
71206;SHT31;58935;54.498;18.544;2023-02-25T05:15:05;3.55;80.64
71206;SHT31;58935;54.498;18.544;2023-02-25T05:17:32;3.57;80.59
71206;SHT31;58935;54.498;18.544;2023-02-25T05:19:59;3.59;80.58
71206;SHT31;58935;54.498;18.544;2023-02-25T05:22:25;3.58;80.41
71206;SHT31;58935;54.498;18.544;2023-02-25T05:24:58;3.57;80.50
71206;SHT31;58935;54.498;18.544;2023-02-25T05:27:26;3.59;80.58
71206;SHT31;58935;54.498;18.544;2023-02-25T05:29:56;3.62;80.48
71206;SHT31;58935;54.498;18.544;2023-02-25T05:32:24;3.63;80.49
71206;SHT31;58935;54.498;18.544;2023-02-25T05:34:51;3.64;80.43
71206;SHT31;58935;54.498;18.544;2023-02-25T05:37:17;3.64;80.32
71206;SHT31;58935;54.498;18.544;2023-02-25T05:39:42;3.63;80.30
71206;SHT31;58935;54.498;18.544;2023-02-25T05:42:08;3.63;80.34
71206;SHT31;58935;54.498;18.544;2023-02-25T05:44:33;3.63;80.30
71206;SHT31;58935;54.498;18.544;2023-02-25T05:47:04;3.64;80.24
71206;SHT31;58935;54.498;18.544;2023-02-25T05:49:34;3.65;80.30
71206;SHT31;58935;54.498;18.544;2023-02-25T05:52:08;3.66;80.27
71206;SHT31;58935;54.498;18.544;2023-02-25T05:54:39;3.67;80.11
71206;SHT31;58935;54.498;18.544;2023-02-25T05:57:07;3.68;80.35
71206;SHT31;58935;54.498;18.544;2023-02-25T06:05:08;3.73;80.20
71206;SHT31;58935;54.498;18.544;2023-02-25T06:07:33;3.75;80.11
71206;SHT31;58935;54.498;18.544;2023-02-25T06:09:59;3.76;80.14
71206;SHT31;58935;54.498;18.544;2023-02-25T06:12:27;3.81;80.10
71206;SHT31;58935;54.498;18.544;2023-02-25T06:14:53;3.84;80.11
71206;SHT31;58935;54.498;18.544;2023-02-25T06:17:19;3.89;79.99
71206;SHT31;58935;54.498;18.544;2023-02-25T06:19:44;3.91;79.80
71206;SHT31;58935;54.498;18.544;2023-02-25T06:22:10;3.94;79.76
71206;SHT31;58935;54.498;18.544;2023-02-25T06:24:35;3.93;79.53
71206;SHT31;58935;54.498;18.544;2023-02-25T06:27:01;3.94;79.65
71206;SHT31;58935;54.498;18.544;2023-02-25T06:29:27;3.98;79.74
71206;SHT31;58935;54.498;18.544;2023-02-25T06:31:52;4.03;79.64
71206;SHT31;58935;54.498;18.544;2023-02-25T06:34:18;4.05;79.48
71206;SHT31;58935;54.498;18.544;2023-02-25T06:36:44;4.10;79.34
71206;SHT31;58935;54.498;18.544;2023-02-25T06:39:15;4.08;78.94
71206;SHT31;58935;54.498;18.544;2023-02-25T06:41:40;4.03;78.92
71206;SHT31;58935;54.498;18.544;2023-02-25T06:44:08;4.02;79.18
71206;SHT31;58935;54.498;18.544;2023-02-25T06:46:37;4.02;79.09
71206;SHT31;58935;54.498;18.544;2023-02-25T06:49:18;3.99;78.99
71206;SHT31;58935;54.498;18.544;2023-02-25T07:00:28;3.86;79.55
71206;SHT31;58935;54.498;18.544;2023-02-25T07:02:53;3.91;79.56
71206;SHT31;58935;54.498;18.544;2023-02-25T07:05:21;3.92;79.44
71206;SHT31;58935;54.498;18.544;2023-02-25T07:07:46;3.91;79.34
71206;SHT31;58935;54.498;18.544;2023-02-25T07:10:12;3.90;79.32
71206;SHT31;58935;54.498;18.544;2023-02-25T07:12:37;3.87;79.35
71206;SHT31;58935;54.498;18.544;2023-02-25T07:15:05;3.83;79.39
71206;SHT31;58935;54.498;18.544;2023-02-25T07:17:34;3.80;79.59
71206;SHT31;58935;54.498;18.544;2023-02-25T07:20:01;3.79;79.76
71206;SHT31;58935;54.498;18.544;2023-02-25T07:22:29;3.79;79.74
71206;SHT31;58935;54.498;18.544;2023-02-25T07:24:57;3.79;79.86
71206;SHT31;58935;54.498;18.544;2023-02-25T07:27:28;3.78;79.84
71206;SHT31;58935;54.498;18.544;2023-02-25T07:29:56;3.74;80.00
71206;SHT31;58935;54.498;18.544;2023-02-25T07:32:23;3.69;80.11
71206;SHT31;58935;54.498;18.544;2023-02-25T07:34:49;3.66;80.29
71206;SHT31;58935;54.498;18.544;2023-02-25T07:37:17;3.62;80.47
71206;SHT31;58935;54.498;18.544;2023-02-25T07:39:45;3.61;80.71
71206;SHT31;58935;54.498;18.544;2023-02-25T07:42:10;3.61;80.85
71206;SHT31;58935;54.498;18.544;2023-02-25T07:44:44;3.60;80.96
71206;SHT31;58935;54.498;18.544;2023-02-25T07:52:57;3.74;81.22
71206;SHT31;58935;54.498;18.544;2023-02-25T07:55:42;3.81;81.42
71206;SHT31;58935;54.498;18.544;2023-02-25T07:58:18;3.87;81.32
71206;SHT31;58935;54.498;18.544;2023-02-25T08:03:34;3.88;81.29
71206;SHT31;58935;54.498;18.544;2023-02-25T08:06:09;3.91;81.41
71206;SHT31;58935;54.498;18.544;2023-02-25T08:08:43;3.89;81.40
71206;SHT31;58935;54.498;18.544;2023-02-25T08:14:03;3.77;81.83
71206;SHT31;58935;54.498;18.544;2023-02-25T08:25:17;3.62;82.04
71206;SHT31;58935;54.498;18.544;2023-02-25T08:30:33;3.52;82.43
71206;SHT31;58935;54.498;18.544;2023-02-25T08:33:05;3.51;82.56
71206;SHT31;58935;54.498;18.544;2023-02-25T08:38:31;3.46;82.87
71206;SHT31;58935;54.498;18.544;2023-02-25T08:41:06;3.41;82.83
71206;SHT31;58935;54.498;18.544;2023-02-25T08:43:35;3.36;82.82
71206;SHT31;58935;54.498;18.544;2023-02-25T08:54:30;3.46;83.03
71206;SHT31;58935;54.498;18.544;2023-02-25T08:57:18;3.54;82.97
71206;SHT31;58935;54.498;18.544;2023-02-25T09:00:06;3.62;82.88
71206;SHT31;58935;54.498;18.544;2023-02-25T09:02:39;3.71;82.87
71206;SHT31;58935;54.498;18.544;2023-02-25T09:08:16;3.79;82.63
71206;SHT31;58935;54.498;18.544;2023-02-25T09:10:47;3.75;82.57
71206;SHT31;58935;54.498;18.544;2023-02-25T09:13:18;3.67;82.81
71206;SHT31;58935;54.498;18.544;2023-02-25T09:15:55;3.62;83.26
71206;SHT31;58935;54.498;18.544;2023-02-25T09:18:44;3.64;83.57
71206;SHT31;58935;54.498;18.544;2023-02-25T09:21:33;3.67;83.76
71206;SHT31;58935;54.498;18.544;2023-02-25T09:24:16;3.69;83.93
71206;SHT31;58935;54.498;18.544;2023-02-25T09:26:50;3.69;84.09
71206;SHT31;58935;54.498;18.544;2023-02-25T09:29:24;3.68;84.39
71206;SHT31;58935;54.498;18.544;2023-02-25T09:32:15;3.66;85.00
71206;SHT31;58935;54.498;18.544;2023-02-25T09:34:53;3.59;85.70
71206;SHT31;58935;54.498;18.544;2023-02-25T09:40:24;3.44;86.16
71206;SHT31;58935;54.498;18.544;2023-02-25T09:43:06;3.40;86.48
71206;SHT31;58935;54.498;18.544;2023-02-25T09:45:39;3.34;86.42
71206;SHT31;58935;54.498;18.544;2023-02-25T09:48:52;3.23;86.58
71206;SHT31;58935;54.498;18.544;2023-02-25T09:51:30;3.21;86.68
71206;SHT31;58935;54.498;18.544;2023-02-25T09:56:44;3.20;86.41
71206;SHT31;58935;54.498;18.544;2023-02-25T09:59:20;3.19;86.34
71206;SHT31;58935;54.498;18.544;2023-02-25T10:10:19;3.10;86.15
71206;SHT31;58935;54.498;18.544;2023-02-25T10:15:48;2.97;86.55
71206;SHT31;58935;54.498;18.544;2023-02-25T10:18:30;2.89;86.58
71206;SHT31;58935;54.498;18.544;2023-02-25T10:26:58;2.65;87.13
71206;SHT31;58935;54.498;18.544;2023-02-25T10:29:35;2.62;87.29
71206;SHT31;58935;54.498;18.544;2023-02-25T10:32:17;2.63;87.56
71206;SHT31;58935;54.498;18.544;2023-02-25T10:34:55;2.68;87.75
71206;SHT31;58935;54.498;18.544;2023-02-25T10:37:35;2.78;87.84
71206;SHT31;58935;54.498;18.544;2023-02-25T10:40:12;2.85;87.75
71206;SHT31;58935;54.498;18.544;2023-02-25T10:42:50;2.91;87.76
71206;SHT31;58935;54.498;18.544;2023-02-25T10:45:25;2.95;87.56
71206;SHT31;58935;54.498;18.544;2023-02-25T10:48:11;2.99;87.47
71206;SHT31;58935;54.498;18.544;2023-02-25T10:51:23;3.06;86.97
71206;SHT31;58935;54.498;18.544;2023-02-25T10:57:51;3.16;86.48
71206;SHT31;58935;54.498;18.544;2023-02-25T11:02:55;3.25;86.32
71206;SHT31;58935;54.498;18.544;2023-02-25T11:16:31;3.09;86.35
71206;SHT31;58935;54.498;18.544;2023-02-25T11:19:09;3.08;86.58
71206;SHT31;58935;54.498;18.544;2023-02-25T11:21:47;3.04;86.68
71206;SHT31;58935;54.498;18.544;2023-02-25T11:26:56;3.01;86.59
71206;SHT31;58935;54.498;18.544;2023-02-25T11:29:32;2.97;86.67
71206;SHT31;58935;54.498;18.544;2023-02-25T11:32:08;2.95;86.62
71206;SHT31;58935;54.498;18.544;2023-02-25T11:34:55;2.95;86.57
71206;SHT31;58935;54.498;18.544;2023-02-25T11:40:18;2.92;86.68
71206;SHT31;58935;54.498;18.544;2023-02-25T11:45:29;2.82;86.89
71206;SHT31;58935;54.498;18.544;2023-02-25T11:48:01;2.76;87.00
71206;SHT31;58935;54.498;18.544;2023-02-25T11:50:39;2.61;86.58
71206;SHT31;58935;54.498;18.544;2023-02-25T11:53:26;2.43;86.53
71206;SHT31;58935;54.498;18.544;2023-02-25T11:55:58;2.25;87.03
71206;SHT31;58935;54.498;18.544;2023-02-25T12:03:57;2.10;88.62
71206;SHT31;58935;54.498;18.544;2023-02-25T12:09:18;2.21;88.74
71206;SHT31;58935;54.498;18.544;2023-02-25T12:15:04;2.26;88.70
71206;SHT31;58935;54.498;18.544;2023-02-25T12:31:40;2.49;87.88
71206;SHT31;58935;54.498;18.544;2023-02-25T12:45:26;2.37;87.56
71206;SHT31;58935;54.498;18.544;2023-02-25T12:53:40;2.35;87.65
71206;SHT31;58935;54.498;18.544;2023-02-25T12:59:54;2.28;87.46
71206;SHT31;58935;54.498;18.544;2023-02-25T13:07:52;2.24;86.67
71206;SHT31;58935;54.498;18.544;2023-02-25T13:32:57;1.97;88.29
71206;SHT31;58935;54.498;18.544;2023-02-25T13:35:51;1.88;88.59
71206;SHT31;58935;54.498;18.544;2023-02-25T13:38:57;1.83;88.99
71206;SHT31;58935;54.498;18.544;2023-02-25T13:52:20;1.44;90.68
71206;SHT31;58935;54.498;18.544;2023-02-25T13:54:52;1.42;90.67
71206;SHT31;58935;54.498;18.544;2023-02-25T14:17:33;1.54;91.29
71206;SHT31;58935;54.498;18.544;2023-02-25T14:20:37;1.58;91.30
71206;SHT31;58935;54.498;18.544;2023-02-25T14:26:08;1.64;91.59
71206;SHT31;58935;54.498;18.544;2023-02-25T14:35:14;1.59;90.01
71206;SHT31;58935;54.498;18.544;2023-02-25T14:44:14;1.51;91.29
71206;SHT31;58935;54.498;18.544;2023-02-25T14:46:51;1.40;91.97
71206;SHT31;58935;54.498;18.544;2023-02-25T14:49:34;1.26;92.93
71206;SHT31;58935;54.498;18.544;2023-02-25T15:15:27;1.04;93.94
71206;SHT31;58935;54.498;18.544;2023-02-25T15:20:34;1.06;93.94
71206;SHT31;58935;54.498;18.544;2023-02-25T15:23:13;1.05;93.64
71206;SHT31;58935;54.498;18.544;2023-02-25T15:26:16;1.06;93.07
71206;SHT31;58935;54.498;18.544;2023-02-25T15:28:32;1.08;93.03
71206;SHT31;58935;54.498;18.544;2023-02-25T15:36:43;1.00;93.19
71206;SHT31;58935;54.498;18.544;2023-02-25T15:41:57;0.95;93.09
71206;SHT31;58935;54.498;18.544;2023-02-25T15:44:31;0.94;93.51
71206;SHT31;58935;54.498;18.544;2023-02-25T15:49:46;0.96;93.98
71206;SHT31;58935;54.498;18.544;2023-02-25T15:52:49;0.96;93.49
